Time;durP1;ratioP1;P1;durP2;ratioP2;P2;SDS_P1;SDS_P2;PMS_P1;PMS_P2;Temp;Humidity;BMP_temperature;BMP_pressure;BME280_temperature;BME280_humidity;BME280_pressure;Samples;Min_cycle;Max_cycle;Signal;HPM_P1;HPM_P2
2021/12/21 00:00:46;;;;;;;27.73;14.40;;;-2.00;99.90;;;;;;5051748;28;20044;-78
2021/12/21 00:03:12;;;;;;;24.30;14.33;;;-2.00;99.90;;;;;;5051291;28;20044;-78
2021/12/21 00:05:38;;;;;;;22.20;13.47;;;-2.00;99.90;;;;;;5051343;28;20037;-78
2021/12/21 00:08:08;;;;;;;29.93;15.00;;;-2.00;99.90;;;;;;5054959;28;20083;-78
2021/12/21 00:10:35;;;;;;;23.77;12.50;;;-2.00;99.90;;;;;;5055673;28;20053;-79
2021/12/21 00:13:05;;;;;;;27.00;13.67;;;-2.00;99.90;;;;;;5056899;28;20452;-77
2021/12/21 00:15:56;;;;;;;21.00;12.80;;;-2.00;99.90;;;;;;5039532;28;20045;-78
2021/12/21 00:21:13;;;;;;;26.57;13.67;;;-2.10;99.90;;;;;;5056054;28;20076;-78
2021/12/21 00:23:43;;;;;;;24.90;12.87;;;-2.10;99.90;;;;;;5056785;28;20570;-79
2021/12/21 00:26:27;;;;;;;23.57;13.27;;;-2.10;99.90;;;;;;5055962;28;20072;-79
2021/12/21 00:28:58;;;;;;;;;;;-2.10;99.90;;;;;;5057132;28;20532;-79
2021/12/21 00:31:26;;;;;;;20.93;11.23;;;-2.20;99.90;;;;;;5057181;28;19916;-79
2021/12/21 00:33:51;;;;;;;21.27;11.80;;;-2.30;99.90;;;;;;5056332;28;20037;-78
2021/12/21 00:36:20;;;;;;;19.47;11.33;;;-2.30;99.90;;;;;;5056714;28;20564;-79
2021/12/21 00:38:47;;;;;;;25.10;11.87;;;-2.40;99.90;;;;;;5040722;28;20441;-79
2021/12/21 00:41:13;;;;;;;19.70;11.57;;;-2.40;99.90;;;;;;5056486;28;20037;-79
2021/12/21 00:43:39;;;;;;;19.17;11.70;;;-2.40;99.90;;;;;;5056670;28;20041;-79
2021/12/21 00:46:04;;;;;;;23.87;12.87;;;-2.40;99.90;;;;;;5056356;28;20052;-79
2021/12/21 00:48:32;;;;;;;20.73;11.67;;;-2.40;99.90;;;;;;5056746;28;20056;-79
2021/12/21 00:51:01;;;;;;;22.17;11.93;;;-2.50;99.90;;;;;;5039467;28;20037;-79
2021/12/21 00:53:26;;;;;;;22.23;12.20;;;-2.50;99.90;;;;;;5039866;28;20498;-79
2021/12/21 00:55:54;;;;;;;21.13;11.93;;;-2.50;99.90;;;;;;5056019;28;20045;-79
2021/12/21 00:58:20;;;;;;;21.57;12.17;;;-2.40;99.90;;;;;;5056169;28;20047;-79
2021/12/21 01:00:46;;;;;;;26.47;12.13;;;-2.50;99.90;;;;;;5056596;28;20390;-79
2021/12/21 01:03:14;;;;;;;22.67;11.93;;;-2.50;99.90;;;;;;5056534;28;20048;-79
2021/12/21 01:08:13;;;;;;;18.47;10.20;;;-2.60;99.90;;;;;;5056210;28;20089;-79
2021/12/21 01:10:51;;;;;;;22.57;11.67;;;-2.50;99.90;;;;;;5039858;28;20033;-79
2021/12/21 01:13:31;;;;;;;20.60;10.60;;;-2.60;99.90;;;;;;5056050;28;20498;-79
2021/12/21 01:16:07;;;;;;;21.77;9.77;;;-2.60;99.90;;;;;;5038768;28;20045;-79
2021/12/21 01:18:53;;;;;;;18.07;10.60;;;-2.60;99.90;;;;;;5054608;28;20049;-79
2021/12/21 01:21:22;;;;;;;23.73;11.43;;;-2.60;99.90;;;;;;5039026;28;20036;-79
2021/12/21 01:34:40;;;;;;;20.50;10.77;;;-2.60;99.90;;;;;;5037278;28;20052;-79
2021/12/21 01:37:16;;;;;;;19.80;9.63;;;-2.60;99.90;;;;;;5037070;28;20051;-79
2021/12/21 01:42:36;;;;;;;16.90;8.93;;;-2.60;99.90;;;;;;5055876;28;20398;-79
2021/12/21 01:50:32;;;;;;;15.95;9.35;;;-2.60;99.90;;;;;;5055727;28;20128;-80
2021/12/21 01:52:57;;;;;;;19.17;9.93;;;-2.70;99.90;;;;;;5039249;28;20518;-80
2021/12/21 01:55:23;;;;;;;21.47;10.67;;;-2.70;99.90;;;;;;5055244;28;20127;-79
2021/12/21 01:57:48;;;;;;;19.77;10.23;;;-2.70;99.90;;;;;;5055614;28;20047;-79
2021/12/21 02:00:15;;;;;;;16.53;9.63;;;-2.80;99.90;;;;;;5054534;28;20444;-79
2021/12/21 02:02:41;;;;;;;18.20;10.33;;;-2.90;99.90;;;;;;5054843;28;20037;-79
2021/12/21 02:05:07;;;;;;;19.17;10.00;;;-2.90;99.90;;;;;;5038231;28;20037;-79
2021/12/21 02:07:33;;;;;;;17.20;9.33;;;-2.90;99.90;;;;;;5054620;28;20048;-79
2021/12/21 02:09:59;;;;;;;20.83;10.10;;;-2.90;99.90;;;;;;5054726;28;20611;-80
2021/12/21 02:12:25;;;;;;;23.27;9.30;;;-2.80;99.90;;;;;;5054534;28;20100;-79
2021/12/21 02:14:56;;;;;;;20.50;10.07;;;-2.80;99.90;;;;;;5054521;28;20037;-79
2021/12/21 02:20:21;;;;;;;19.10;9.30;;;-2.80;99.90;;;;;;5054768;28;20040;-80
2021/12/21 02:22:56;;;;;;;17.43;9.37;;;-2.80;99.90;;;;;;5054986;28;20291;-79
2021/12/21 02:27:59;;;;;;;14.73;8.23;;;-2.80;99.90;;;;;;5054471;28;20526;-79
2021/12/21 02:30:26;;;;;;;16.97;7.90;;;-2.80;99.90;;;;;;5054476;28;20118;-79
2021/12/21 02:32:52;;;;;;;15.03;8.40;;;-2.90;99.90;;;;;;5054318;28;20383;-79
2021/12/21 02:35:18;;;;;;;16.40;8.93;;;-2.90;99.90;;;;;;5053557;28;20055;-79
2021/12/21 02:37:44;;;;;;;18.10;8.50;;;-2.90;99.90;;;;;;5054705;28;20037;-79
2021/12/21 02:40:10;;;;;;;14.70;8.13;;;-3.00;99.90;;;;;;5054539;28;20041;-79
2021/12/21 02:42:36;;;;;;;14.93;7.80;;;-3.10;99.90;;;;;;5054570;28;20040;-80
2021/12/21 02:45:03;;;;;;;13.47;7.10;;;-3.10;99.90;;;;;;5053439;28;20119;-79
2021/12/21 02:47:29;;;;;;;12.60;7.80;;;-3.10;99.90;;;;;;5053803;28;20044;-79
2021/12/21 02:49:54;;;;;;;14.27;7.23;;;-3.40;99.90;;;;;;5037407;28;20100;-79
2021/12/21 02:52:20;;;;;;;14.40;7.53;;;-3.10;99.90;;;;;;5037413;28;20083;-79
2021/12/21 02:54:45;;;;;;;18.03;8.03;;;-3.10;99.90;;;;;;5053353;28;20041;-79
2021/12/21 02:57:11;;;;;;;11.40;6.83;;;-3.10;99.90;;;;;;5053641;28;20439;-80
2021/12/21 02:59:36;;;;;;;14.43;7.40;;;-3.10;99.90;;;;;;5053630;28;20029;-79
2021/12/21 03:02:02;;;;;;;13.93;6.70;;;-3.10;99.90;;;;;;5053835;28;20494;-79
2021/12/21 03:04:28;;;;;;;13.33;6.83;;;-3.10;99.90;;;;;;5053437;28;20065;-79
2021/12/21 03:09:38;;;;;;;13.07;6.80;;;-3.10;99.90;;;;;;5053752;28;20378;-79
2021/12/21 03:14:40;;;;;;;11.33;6.20;;;-3.10;99.90;;;;;;5054027;28;20525;-79
2021/12/21 03:17:07;;;;;;;13.17;6.63;;;-3.10;99.90;;;;;;5054250;28;20131;-78
2021/12/21 03:19:34;;;;;;;12.23;6.57;;;-3.20;99.90;;;;;;5053867;28;20045;-79
2021/12/21 03:21:59;;;;;;;11.60;6.20;;;-3.20;99.90;;;;;;5053417;28;20069;-79
2021/12/21 03:24:25;;;;;;;11.43;5.87;;;-3.20;99.90;;;;;;5053377;28;20041;-79
2021/12/21 03:26:50;;;;;;;12.27;6.37;;;-3.30;99.90;;;;;;5053999;28;20048;-79
2021/12/21 03:29:16;;;;;;;11.07;5.50;;;-3.30;99.90;;;;;;5053290;28;20523;-79
2021/12/21 03:31:42;;;;;;;10.80;5.60;;;-3.30;99.90;;;;;;5053328;28;20037;-80
2021/12/21 03:34:08;;;;;;;11.30;5.90;;;-3.40;99.90;;;;;;5053723;28;20449;-79
2021/12/21 03:36:34;;;;;;;9.37;5.43;;;-3.40;99.90;;;;;;5036991;28;20167;-79
2021/12/21 03:39:08;;;;;;;12.00;5.23;;;-3.40;99.90;;;;;;5036853;28;20037;-79
2021/12/21 03:41:38;;;;;;;11.87;4.97;;;-3.40;99.90;;;;;;5054130;28;20116;-79
2021/12/21 03:44:04;;;;;;;10.30;4.80;;;-3.40;99.90;;;;;;5040283;28;20135;-79
2021/12/21 03:46:32;;;;;;;9.53;4.93;;;-3.40;99.90;;;;;;5040877;28;20041;-79
2021/12/21 03:48:59;;;;;;;10.13;5.13;;;-3.40;99.90;;;;;;5041030;28;20044;-79
2021/12/21 03:51:24;;;;;;;9.17;5.03;;;-3.40;99.90;;;;;;5057228;28;20551;-79
2021/12/21 03:53:50;;;;;;;10.40;5.50;;;-3.40;99.90;;;;;;5040078;28;20040;-79
2021/12/21 03:56:36;;;;;;;8.80;5.40;;;-3.40;99.90;;;;;;5057215;28;20037;-79
2021/12/21 03:59:01;;;;;;;8.87;5.17;;;-3.40;99.90;;;;;;5056964;28;20060;-79
2021/12/21 04:01:27;;;;;;;10.67;5.17;;;-3.30;99.90;;;;;;5057063;28;20044;-79
2021/12/21 04:03:52;;;;;;;13.03;5.63;;;-3.40;99.90;;;;;;5040081;28;20037;-79
2021/12/21 04:06:18;;;;;;;8.43;5.03;;;-3.30;99.90;;;;;;5056915;28;20037;-79
2021/12/21 04:08:43;;;;;;;10.20;5.03;;;-3.40;99.90;;;;;;5040480;28;20037;-78
2021/12/21 04:11:09;;;;;;;10.07;5.37;;;-3.40;99.90;;;;;;5040441;28;20106;-79
2021/12/21 04:13:35;;;;;;;11.13;5.13;;;-3.40;99.90;;;;;;5056588;28;20056;-79
2021/12/21 04:16:03;;;;;;;9.57;5.20;;;-3.40;99.90;;;;;;5056651;28;20067;-79
2021/12/21 04:18:34;;;;;;;9.60;5.00;;;-3.50;99.90;;;;;;5040222;28;20041;-79
2021/12/21 04:20:59;;;;;;;8.23;4.70;;;-3.50;99.90;;;;;;5056653;28;20055;-79
2021/12/21 04:23:25;;;;;;;8.13;4.73;;;-3.00;99.90;;;;;;5056101;28;20033;-79
2021/12/21 04:25:51;;;;;;;7.27;4.67;;;-3.60;99.90;;;;;;5056460;28;20124;-79
2021/12/21 04:28:16;;;;;;;10.47;5.27;;;-3.60;99.90;;;;;;5039607;28;20464;-78
2021/12/21 04:30:42;;;;;;;8.87;4.77;;;-3.60;99.90;;;;;;5056276;28;20128;-79
2021/12/21 04:33:07;;;;;;;6.83;4.47;;;-3.60;99.90;;;;;;5056431;28;20044;-79
2021/12/21 04:35:33;;;;;;;7.97;4.67;;;-3.60;99.90;;;;;;5055867;28;20094;-79
2021/12/21 04:38:11;;;;;;;11.60;4.63;;;-3.60;99.90;;;;;;5057080;28;20422;-78
2021/12/21 04:40:41;;;;;;;7.67;4.70;;;-3.50;99.90;;;;;;5056027;28;20095;-79
2021/12/21 04:43:07;;;;;;;7.10;4.50;;;-3.50;99.90;;;;;;5039585;28;20068;-79
2021/12/21 04:45:32;;;;;;;10.50;5.37;;;-3.50;99.90;;;;;;5055470;28;20102;-79
2021/12/21 04:47:58;;;;;;;9.77;4.70;;;-3.50;99.90;;;;;;5055821;28;20036;-80
2021/12/21 04:50:24;;;;;;;7.40;4.70;;;-3.50;99.90;;;;;;5056327;28;20037;-79
2021/12/21 04:52:50;;;;;;;8.57;4.70;;;-3.50;99.90;;;;;;5055997;28;20072;-80
2021/12/21 04:55:16;;;;;;;8.03;4.67;;;-3.50;99.90;;;;;;5055070;28;20045;-80
2021/12/21 04:57:43;;;;;;;7.97;4.70;;;-3.50;99.90;;;;;;5056195;28;20406;-79
2021/12/21 05:00:10;;;;;;;8.37;4.90;;;-3.60;99.90;;;;;;5039576;28;20060;-80
2021/12/21 05:02:36;;;;;;;7.20;4.23;;;-3.60;99.90;;;;;;5039158;28;20402;-80
2021/12/21 05:05:01;;;;;;;6.40;4.50;;;-3.60;99.90;;;;;;5055321;28;20033;-79
2021/12/21 05:07:30;;;;;;;8.77;4.77;;;-3.70;99.90;;;;;;5054887;28;20533;-79
2021/12/21 05:09:57;;;;;;;10.07;4.93;;;-3.70;99.90;;;;;;5055655;28;20492;-79
2021/12/21 05:12:24;;;;;;;6.90;4.53;;;-3.70;99.90;;;;;;5059592;28;20046;-79
2021/12/21 05:14:51;;;;;;;6.43;4.40;;;-3.70;99.90;;;;;;5038470;28;20029;-79
2021/12/21 05:17:17;;;;;;;6.83;4.40;;;-3.70;99.90;;;;;;5055121;28;20041;-79
2021/12/21 05:19:43;;;;;;;7.77;4.83;;;-3.80;99.90;;;;;;5055347;28;20036;-79
2021/12/21 05:22:09;;;;;;;8.17;4.70;;;-3.80;99.90;;;;;;5055484;28;20059;-79
2021/12/21 05:24:34;;;;;;;6.80;4.53;;;-3.80;99.90;;;;;;5054804;28;20048;-79
2021/12/21 05:27:00;;;;;;;8.33;4.83;;;-3.80;99.90;;;;;;5054803;28;20040;-79
2021/12/21 05:29:26;;;;;;;9.37;4.87;;;-3.70;99.90;;;;;;5054760;28;20068;-79
2021/12/21 05:31:52;;;;;;;6.87;4.13;;;-3.80;99.90;;;;;;5038659;28;20457;-79
2021/12/21 05:34:18;;;;;;;7.57;4.73;;;-3.80;99.90;;;;;;5055201;28;20167;-78
2021/12/21 05:36:44;;;;;;;10.17;5.20;;;-3.80;99.90;;;;;;5055115;28;20083;-79
2021/12/21 05:39:22;;;;;;;7.47;4.60;;;-3.80;99.90;;;;;;5055206;28;20045;-79
2021/12/21 05:41:55;;;;;;;8.50;4.87;;;-3.80;99.90;;;;;;5055011;28;20033;-79
2021/12/21 05:44:24;;;;;;;7.25;4.47;;;-3.80;99.90;;;;;;5054496;28;20041;-79
2021/12/21 05:46:51;;;;;;;8.87;4.83;;;-3.80;99.90;;;;;;5038004;28;20076;-79
2021/12/21 05:49:17;;;;;;;7.70;4.83;;;-3.80;99.90;;;;;;5055092;28;20051;-79
2021/12/21 05:51:44;;;;;;;7.77;4.17;;;-3.80;99.90;;;;;;5037584;28;20043;-79
2021/12/21 05:54:11;;;;;;;9.67;5.07;;;-3.80;99.90;;;;;;5054644;28;20347;-79
2021/12/21 05:56:37;;;;;;;8.53;4.73;;;-3.90;99.90;;;;;;5054795;28;20123;-79
2021/12/21 05:59:03;;;;;;;6.37;4.20;;;-3.90;99.90;;;;;;5040382;28;20076;-81
2021/12/21 06:01:30;;;;;;;6.93;4.10;;;-3.80;99.90;;;;;;5061117;28;20099;-79
2021/12/21 06:03:56;;;;;;;6.80;4.57;;;-3.90;99.90;;;;;;5054098;28;20037;-79
2021/12/21 06:06:21;;;;;;;8.70;4.43;;;-3.90;99.90;;;;;;5054127;28;20052;-79
2021/12/21 06:08:49;;;;;;;9.70;4.73;;;-3.90;99.90;;;;;;5054273;28;20041;-78
2021/12/21 06:11:15;;;;;;;8.90;4.83;;;-4.00;99.90;;;;;;5054814;28;20456;-79
2021/12/21 06:22:43;;;;;;;6.90;4.17;;;-4.10;99.90;;;;;;5073783;28;20044;-80
2021/12/21 06:26:40;;;;;;;6.33;4.03;;;-4.00;99.90;;;;;;5073143;28;20048;-80
2021/12/21 06:29:05;;;;;;;7.97;4.57;;;-3.40;99.90;;;;;;5072385;28;20131;-80
2021/12/21 06:31:31;;;;;;;6.50;4.53;;;-4.00;99.90;;;;;;5072352;28;20539;-80
2021/12/21 06:33:57;;;;;;;7.17;4.30;;;-4.00;99.90;;;;;;5071780;28;20044;-81
2021/12/21 06:36:23;;;;;;;7.13;4.60;;;-4.00;99.90;;;;;;5072110;28;20115;-81
2021/12/21 06:38:49;;;;;;;6.50;4.40;;;-4.00;99.90;;;;;;5071732;28;20048;-80
2021/12/21 06:41:15;;;;;;;8.50;4.40;;;-4.00;99.90;;;;;;5071453;28;20489;-80
2021/12/21 06:43:41;;;;;;;8.60;4.60;;;-4.00;99.90;;;;;;5070930;28;20128;-80
2021/12/21 06:51:45;;;;;;;;;;;-4.10;99.90;;;;;;5071672;28;20055;-80
2021/12/21 06:54:11;;;;;;;4.83;3.53;;;-4.10;99.90;;;;;;5054381;28;19917;-81
2021/12/21 06:56:37;;;;;;;6.50;3.97;;;-4.20;99.90;;;;;;5070697;28;20067;-81
2021/12/21 06:59:02;;;;;;;7.40;4.40;;;-4.20;99.90;;;;;;5071281;28;20436;-81
2021/12/21 07:01:28;;;;;;;7.67;5.00;;;-4.20;99.90;;;;;;5071551;28;20557;-81
2021/12/21 07:03:55;;;;;;;6.73;4.47;;;-4.20;99.90;;;;;;5055640;28;20036;-81
2021/12/21 07:06:23;;;;;;;7.40;4.20;;;-4.20;99.90;;;;;;5071286;28;20469;-80
2021/12/21 07:09:02;;;;;;;7.43;5.03;;;-4.10;99.90;;;;;;5070830;28;20048;-81
2021/12/21 07:11:37;;;;;;;9.50;5.27;;;-4.10;99.90;;;;;;5070726;28;20036;-81
2021/12/21 07:19:32;;;;;;;9.70;5.03;;;-4.30;99.90;;;;;;5070851;28;20048;-81
2021/12/21 07:21:58;;;;;;;6.20;4.57;;;-4.40;99.90;;;;;;5070838;28;20052;-82
2021/12/21 07:24:25;;;;;;;7.90;5.23;;;-4.30;99.90;;;;;;5070338;28;20083;-81
2021/12/21 07:26:50;;;;;;;9.27;4.83;;;-4.30;99.90;;;;;;5053649;28;20040;-80
2021/12/21 07:29:17;;;;;;;8.27;5.13;;;-4.30;99.90;;;;;;5070504;28;20039;-81
2021/12/21 07:31:42;;;;;;;37.97;20.13;;;-4.30;99.90;;;;;;5054038;28;20055;-81
2021/12/21 07:34:08;;;;;;;39.43;19.30;;;-4.30;99.90;;;;;;5070523;28;20061;-81
2021/12/21 07:36:34;;;;;;;45.47;23.07;;;-4.30;99.90;;;;;;5070203;28;20055;-81
2021/12/21 07:39:01;;;;;;;24.87;12.53;;;-4.30;99.90;;;;;;5070813;28;20048;-81
2021/12/21 07:41:26;;;;;;;18.13;9.40;;;-4.30;99.90;;;;;;5070589;28;20040;-81
2021/12/21 07:43:52;;;;;;;15.63;8.00;;;-4.30;99.90;;;;;;5070092;28;20047;-81
2021/12/21 07:46:18;;;;;;;17.40;8.53;;;-4.30;99.90;;;;;;5070889;28;20043;-81
2021/12/21 07:48:44;;;;;;;18.03;13.17;;;-4.30;99.90;;;;;;5054074;28;20132;-82
2021/12/21 07:51:10;;;;;;;14.97;11.23;;;-4.30;99.90;;;;;;5070154;28;20032;-82
2021/12/21 07:53:36;;;;;;;14.13;10.00;;;-4.30;99.90;;;;;;5070127;28;20136;-82
2021/12/21 07:56:03;;;;;;;13.47;8.60;;;-4.30;99.90;;;;;;5069729;28;20044;-82
2021/12/21 07:58:30;;;;;;;12.53;7.70;;;-4.30;99.90;;;;;;5053595;28;20047;-81
2021/12/21 08:00:57;;;;;;;13.97;8.43;;;-4.30;99.90;;;;;;5070227;28;20146;-81
2021/12/21 08:03:23;;;;;;;11.33;7.40;;;-4.30;99.90;;;;;;5070028;28;20448;-82
2021/12/21 08:05:52;;;;;;;15.87;7.63;;;-4.20;99.90;;;;;;5069634;28;20051;-81
2021/12/21 08:08:21;;;;;;;13.17;8.90;;;-4.20;99.90;;;;;;5053442;28;20047;-82
2021/12/21 08:13:32;;;;;;;14.60;9.60;;;-4.20;99.90;;;;;;5069936;28;20079;-82
2021/12/21 08:15:57;;;;;;;15.83;8.67;;;-4.20;99.90;;;;;;5069399;28;20040;-82
2021/12/21 08:18:23;;;;;;;14.97;9.10;;;-4.20;99.90;;;;;;5053434;28;20533;-82
2021/12/21 08:20:49;;;;;;;14.00;9.00;;;-4.20;99.90;;;;;;5069862;28;20076;-82
2021/12/21 08:23:14;;;;;;;13.60;8.60;;;-4.20;99.90;;;;;;5069916;28;20076;-82
2021/12/21 08:25:40;;;;;;;14.03;8.50;;;-4.20;99.90;;;;;;5069483;28;20048;-82
2021/12/21 08:28:06;;;;;;;14.20;8.40;;;-4.20;99.90;;;;;;5070797;28;20052;-81
2021/12/21 08:30:32;;;;;;;13.73;8.37;;;-4.10;99.90;;;;;;5077158;28;20046;-81
2021/12/21 08:32:58;;;;;;;14.00;8.70;;;-4.10;99.90;;;;;;5076459;28;20055;-81
2021/12/21 08:35:25;;;;;;;16.00;9.13;;;-4.10;99.90;;;;;;5074403;28;20036;-81
2021/12/21 08:37:53;;;;;;;13.53;8.83;;;-4.00;99.90;;;;;;5073770;28;20052;-81
2021/12/21 08:40:21;;;;;;;16.07;8.30;;;-4.00;99.90;;;;;;5055565;28;20044;-80
2021/12/21 08:42:48;;;;;;;15.47;9.13;;;-4.00;99.90;;;;;;5077403;28;20037;-81
2021/12/21 08:45:14;;;;;;;14.37;7.87;;;-4.00;99.90;;;;;;5057398;28;20090;-81
2021/12/21 08:47:40;;;;;;;15.30;9.57;;;-4.00;99.90;;;;;;5074311;28;20033;-81
2021/12/21 08:50:08;;;;;;;19.50;10.93;;;-3.90;99.90;;;;;;5074696;28;20041;-81
2021/12/21 08:52:37;;;;;;;16.30;10.57;;;-3.90;99.90;;;;;;5057420;28;20037;-81
2021/12/21 08:55:05;;;;;;;15.40;9.20;;;-3.90;99.90;;;;;;5074152;28;20378;-81
2021/12/21 08:57:32;;;;;;;21.77;13.23;;;-3.90;99.90;;;;;;5057700;28;20120;-80
2021/12/21 08:59:57;;;;;;;29.00;15.60;;;-3.80;99.90;;;;;;5056918;28;20033;-81
2021/12/21 09:02:23;;;;;;;36.97;21.07;;;-3.90;99.90;;;;;;5043884;28;20098;-80
2021/12/21 09:04:48;;;;;;;31.60;16.40;;;-3.80;99.90;;;;;;5060719;28;20417;-81
2021/12/21 09:07:14;;;;;;;24.93;13.67;;;-3.70;99.90;;;;;;5064804;28;20032;-81
2021/12/21 09:09:39;;;;;;;27.63;13.63;;;-3.70;99.90;;;;;;5073105;28;20036;-80
2021/12/21 09:12:06;;;;;;;19.83;11.57;;;-3.60;99.90;;;;;;5073007;28;20044;-83
2021/12/21 09:14:32;;;;;;;21.57;11.93;;;-3.60;99.90;;;;;;5055620;28;20074;-81
2021/12/21 09:17:02;;;;;;;22.37;13.03;;;-3.50;99.90;;;;;;5073448;28;20040;-80
2021/12/21 09:19:27;;;;;;;23.10;12.70;;;-3.50;99.90;;;;;;5074692;28;20135;-81
2021/12/21 09:21:54;;;;;;;21.77;13.50;;;-3.50;99.90;;;;;;5073834;28;20482;-81
2021/12/21 09:24:19;;;;;;;18.60;12.50;;;-3.40;99.90;;;;;;5073240;28;20047;-81
2021/12/21 09:26:45;;;;;;;18.83;11.40;;;-3.40;99.90;;;;;;5073431;28;20590;-81
2021/12/21 09:29:11;;;;;;;20.30;11.60;;;-3.30;99.90;;;;;;5074493;28;20063;-81
2021/12/21 09:31:36;;;;;;;17.40;11.03;;;-3.30;99.90;;;;;;5073423;28;20037;-81
2021/12/21 09:34:02;;;;;;;18.77;10.40;;;-3.20;99.90;;;;;;5072983;28;20048;-81
2021/12/21 09:36:29;;;;;;;17.20;10.47;;;-3.20;99.90;;;;;;5072798;28;20047;-81
2021/12/21 09:38:56;;;;;;;20.97;10.67;;;-3.10;99.90;;;;;;5072324;28;20048;-81
2021/12/21 09:41:23;;;;;;;17.00;10.07;;;-3.00;99.90;;;;;;5072385;28;20028;-81
2021/12/21 09:43:49;;;;;;;19.83;10.67;;;-3.00;99.90;;;;;;5072653;28;20135;-80
2021/12/21 09:46:15;;;;;;;17.30;10.67;;;-2.90;99.90;;;;;;5072720;28;20081;-81
2021/12/21 09:48:41;;;;;;;17.60;11.00;;;-2.80;99.90;;;;;;5073466;28;20046;-81
2021/12/21 09:51:07;;;;;;;16.00;10.40;;;-2.70;99.90;;;;;;5072765;28;20036;-81
2021/12/21 09:53:34;;;;;;;17.47;11.30;;;-2.60;99.90;;;;;;5055952;28;20123;-81
2021/12/21 09:56:01;;;;;;;18.53;11.23;;;-2.60;99.90;;;;;;5072427;28;20040;-81
2021/12/21 09:58:27;;;;;;;18.63;11.20;;;-2.50;99.90;;;;;;5073853;28;20037;-80
2021/12/21 10:00:52;;;;;;;21.23;10.97;;;-2.40;99.90;;;;;;5074911;28;20047;-81
2021/12/21 10:03:18;;;;;;;20.23;12.50;;;-2.30;99.90;;;;;;5071983;28;20122;-81
2021/12/21 10:05:44;;;;;;;20.40;11.80;;;-2.20;99.90;;;;;;5071317;28;20040;-81
2021/12/21 10:08:11;;;;;;;21.63;12.03;;;-2.10;99.90;;;;;;5071997;28;20393;-81
2021/12/21 10:10:40;;;;;;;17.53;11.90;;;-2.00;99.90;;;;;;5071362;28;20044;-81
2021/12/21 10:13:11;;;;;;;18.30;11.90;;;-1.90;99.90;;;;;;5071558;28;20123;-81
2021/12/21 10:15:45;;;;;;;23.57;12.80;;;-1.90;99.90;;;;;;5071330;28;20040;-81
2021/12/21 10:18:11;;;;;;;23.30;12.00;;;-1.80;99.90;;;;;;5072221;28;20066;-81
2021/12/21 10:20:43;;;;;;;20.20;12.77;;;-1.70;99.90;;;;;;5071608;28;20041;-81
2021/12/21 10:23:09;;;;;;;20.17;12.00;;;-1.60;99.90;;;;;;5071944;28;20142;-80
2021/12/21 10:25:43;;;;;;;20.40;11.50;;;-1.50;99.90;;;;;;5070977;28;20063;-80
2021/12/21 10:28:09;;;;;;;18.43;11.47;;;-1.50;99.90;;;;;;5071690;28;20121;-80
2021/12/21 10:30:46;;;;;;;19.27;12.30;;;-1.40;99.90;;;;;;5054413;28;20154;-80
2021/12/21 10:33:12;;;;;;;19.17;12.10;;;-1.30;99.90;;;;;;5071340;28;20443;-80
2021/12/21 10:35:38;;;;;;;21.27;11.57;;;-1.30;99.90;;;;;;5070660;28;20040;-80
2021/12/21 10:38:05;;;;;;;16.03;10.87;;;-1.20;99.90;;;;;;5074284;28;20037;-80
2021/12/21 10:40:30;;;;;;;18.37;11.27;;;-1.10;99.90;;;;;;5071701;28;20043;-80
2021/12/21 10:43:02;;;;;;;18.43;11.97;;;-1.00;99.90;;;;;;5071586;28;20044;-80
2021/12/21 10:45:37;;;;;;;17.23;11.53;;;-0.90;99.90;;;;;;5072062;28;20137;-80
2021/12/21 10:48:05;;;;;;;22.27;12.07;;;-0.80;99.90;;;;;;5072715;28;20040;-80
2021/12/21 10:50:33;;;;;;;19.83;12.67;;;-0.60;99.90;;;;;;5072163;28;20041;-80
2021/12/21 10:53:01;;;;;;;19.63;11.63;;;-0.50;99.90;;;;;;5055627;28;20043;-81
2021/12/21 10:55:32;;;;;;;18.17;11.97;;;-0.40;99.90;;;;;;5071821;28;20040;-81
2021/12/21 10:58:12;;;;;;;16.93;11.77;;;-0.30;99.90;;;;;;5072509;28;20032;-81
2021/12/21 11:00:44;;;;;;;19.50;10.57;;;-0.20;99.90;;;;;;5055474;28;20305;-81
2021/12/21 11:03:10;;;;;;;16.67;10.03;;;-0.10;99.90;;;;;;5055615;28;20033;-81
2021/12/21 11:05:37;;;;;;;17.40;10.53;;;0.00;99.90;;;;;;5056218;28;20499;-80
2021/12/21 11:08:07;;;;;;;16.30;10.33;;;0.10;99.90;;;;;;5072657;28;20052;-81
2021/12/21 11:10:35;;;;;;;16.90;9.63;;;0.20;99.90;;;;;;5073214;28;20127;-79
2021/12/21 11:13:20;;;;;;;14.00;9.50;;;0.20;99.90;;;;;;5072397;28;20148;-80
2021/12/21 11:15:56;;;;;;;17.77;11.10;;;0.30;99.90;;;;;;5071134;28;20158;-79
2021/12/21 11:18:24;;;;;;;15.13;9.70;;;0.40;99.90;;;;;;5070936;28;20042;-79
2021/12/21 11:20:53;;;;;;;24.30;11.73;;;0.50;99.90;;;;;;5070720;28;20033;-79
2021/12/21 11:23:23;;;;;;;21.27;12.40;;;0.50;99.90;;;;;;5070793;28;20076;-79
2021/12/21 11:25:53;;;;;;;19.40;10.07;;;0.60;99.90;;;;;;5070405;28;20046;-80
2021/12/21 11:28:29;;;;;;;15.93;10.20;;;0.60;99.90;;;;;;5070480;28;20091;-80
2021/12/21 11:30:59;;;;;;;18.27;10.30;;;0.70;99.90;;;;;;5070039;28;20040;-83
2021/12/21 11:33:26;;;;;;;16.50;9.60;;;0.70;99.90;;;;;;5053518;28;20044;-81
2021/12/21 11:38:38;;;;;;;16.47;9.70;;;0.90;99.90;;;;;;5070377;28;20040;-82
2021/12/21 11:41:05;;;;;;;15.33;9.30;;;1.00;99.90;;;;;;5053536;28;20040;-82
2021/12/21 11:43:47;;;;;;;16.57;9.23;;;1.00;99.90;;;;;;5070150;28;20071;-83
2021/12/21 11:46:15;;;;;;;12.63;9.30;;;1.10;99.90;;;;;;5053303;28;20131;-82
2021/12/21 11:49:09;;;;;;;16.63;10.30;;;1.10;99.90;;;;;;5070441;28;20429;-80
2021/12/21 11:51:34;;;;;;;15.93;9.23;;;1.20;99.90;;;;;;5070055;28;20049;-80
2021/12/21 11:54:00;;;;;;;14.17;9.07;;;1.20;99.90;;;;;;5069492;28;20040;-81
2021/12/21 11:56:27;;;;;;;21.27;10.17;;;1.30;99.90;;;;;;5069984;28;20040;-81
2021/12/21 11:58:55;;;;;;;15.47;9.60;;;1.30;99.90;;;;;;5069850;28;20037;-80
2021/12/21 12:01:27;;;;;;;16.47;9.90;;;1.40;99.90;;;;;;5070296;28;20062;-81
2021/12/21 12:04:05;;;;;;;15.50;10.50;;;1.50;99.90;;;;;;5072590;28;20043;-82
2021/12/21 12:06:51;;;;;;;12.67;9.50;;;1.50;99.90;;;;;;5074398;28;20109;-79
2021/12/21 12:09:43;;;;;;;18.33;10.03;;;1.70;99.90;;;;;;5073579;28;20056;-79
2021/12/21 12:12:09;;;;;;;16.97;10.40;;;1.80;99.90;;;;;;5054100;28;20056;-78
2021/12/21 12:14:37;;;;;;;15.60;9.73;;;1.90;99.90;;;;;;5072976;28;20127;-77
2021/12/21 12:17:16;;;;;;;12.33;9.50;;;2.00;99.90;;;;;;5073249;28;20375;-77
2021/12/21 12:19:51;;;;;;;17.23;10.20;;;2.10;99.90;;;;;;5073591;28;20093;-77
2021/12/21 12:22:17;;;;;;;15.67;9.07;;;2.10;99.90;;;;;;5073220;28;20043;-77
2021/12/21 12:24:47;;;;;;;14.80;9.50;;;2.20;99.90;;;;;;5073096;28;20024;-77
2021/12/21 12:27:16;;;;;;;18.17;10.07;;;2.30;99.90;;;;;;5072924;28;20097;-77
2021/12/21 12:29:57;;;;;;;14.97;8.93;;;2.30;99.90;;;;;;5072964;28;20124;-77
2021/12/21 12:32:38;;;;;;;15.83;9.10;;;2.50;99.90;;;;;;5073298;28;20047;-78
2021/12/21 12:35:09;;;;;;;14.30;9.03;;;2.70;99.90;;;;;;5072616;28;20562;-78
2021/12/21 12:38:18;;;;;;;12.60;8.57;;;2.80;99.90;;;;;;5056208;28;20076;-78
2021/12/21 12:40:49;;;;;;;15.63;8.47;;;3.10;99.90;;;;;;5072859;28;20120;-79
2021/12/21 12:43:21;;;;;;;12.33;7.80;;;3.30;99.90;;;;;;5072870;28;20041;-80
2021/12/21 12:46:02;;;;;;;8.50;6.10;;;3.60;99.90;;;;;;5055615;28;20082;-79
2021/12/21 12:48:40;;;;;;;15.67;7.30;;;3.70;99.90;;;;;;5073094;28;20040;-80
2021/12/21 12:51:07;;;;;;;17.00;7.80;;;4.10;99.90;;;;;;5073556;28;20452;-80
2021/12/21 12:53:34;;;;;;;14.57;7.93;;;4.40;99.90;;;;;;5074224;28;20123;-81
2021/12/21 12:56:00;;;;;;;15.83;8.70;;;4.80;99.90;;;;;;5072801;28;20037;-81
2021/12/21 12:58:27;;;;;;;15.17;8.33;;;5.20;99.90;;;;;;5073243;28;20052;-81
2021/12/21 13:01:06;;;;;;;14.97;8.10;;;5.60;99.90;;;;;;5073501;28;20468;-81
2021/12/21 13:03:34;;;;;;;17.70;9.27;;;6.00;99.90;;;;;;5073642;28;20048;-81
2021/12/21 13:06:01;;;;;;;16.30;8.97;;;6.30;99.90;;;;;;5072442;28;20090;-81
2021/12/21 13:08:28;;;;;;;15.37;9.17;;;6.70;99.90;;;;;;5073247;28;20048;-82
2021/12/21 13:10:57;;;;;;;12.83;8.33;;;7.10;99.90;;;;;;5072623;28;20575;-81
2021/12/21 13:13:44;;;;;;;15.47;8.17;;;7.20;99.90;;;;;;5072879;28;20519;-82
2021/12/21 13:16:13;;;;;;;14.07;7.70;;;7.50;99.90;;;;;;5071876;28;20048;-83
2021/12/21 13:18:50;;;;;;;15.37;8.33;;;7.50;99.90;;;;;;5056343;28;20040;-83
2021/12/21 13:21:25;;;;;;;13.93;8.10;;;7.50;99.90;;;;;;5072737;28;20343;-84
2021/12/21 13:24:00;;;;;;;13.52;7.25;;;7.50;99.90;;;;;;5072200;28;20041;-84
2021/12/21 13:26:33;;;;;;;12.90;7.60;;;7.30;99.90;;;;;;5072365;28;20498;-83
2021/12/21 13:28:59;;;;;;;11.27;6.80;;;7.30;99.90;;;;;;5072573;28;20079;-84
2021/12/21 13:31:25;;;;;;;11.02;6.75;;;7.20;99.90;;;;;;5072307;28;20283;-84
2021/12/21 13:33:57;;;;;;;10.52;6.72;;;6.80;99.90;;;;;;5072265;28;20043;-87
2021/12/21 13:36:34;;;;;;;10.77;6.90;;;6.10;99.90;;;;;;5055627;28;20036;-84
2021/12/21 13:39:13;;;;;;;9.95;6.40;;;5.50;99.90;;;;;;5072566;28;20432;-84
2021/12/21 13:41:48;;;;;;;11.18;6.32;;;5.00;99.90;;;;;;5072162;28;20045;-84
2021/12/21 13:44:20;;;;;;;9.80;6.43;;;4.70;99.90;;;;;;5071589;28;20033;-84
2021/12/21 13:46:46;;;;;;;8.88;6.22;;;4.40;99.90;;;;;;5072469;28;20043;-84